PWSweather.com
Personal Weather Stations
Station Observations
GIVE2LIVE
Alvarado, TX

Alvarado, TX

Lat: 32.426536, Lon: -97.222215

Elevation: 777

Station Type: Davis Vantage Pro2 / Cumulus

Latest ConditionsUpdated 1:50:00 AM CST Thursday, Dec 12, 2019
Currently Today's Max Today's Min Today's Average
Temperature 37.9°F3.3°C 39.4°F4.1°C 37.8°F3.2°C 38.7°F3.7°C
Dew Point 33.8°F1.0°C 35.7°F2.1°C 33.7°F0.9°C 34.8°F1.6°C
Winds 3.0 mph SE4.8 kmh SE 3.0 mph -4.8 kmh - - 2.9 mph 4.7 kmh
Wind Gusts 6.0 mph9.7 kmh 6.0 mph9.7 kmh - -
Humidity 85% 87% 85% 86%
Pressure 30.32 in1026.8 mb 30.36 in1028.1 mb 30.32 in1026.8 mb -
Hour Temp Dew Point Humidity Winds Wind Gusts Pressure Precip Precip Rate Daily Precip Total
01:50 AM 37.9°F3.3°C 33.8°F1.0°C 85% 3.0 mph SE4.8 kmh SE 6.0 mph9.7 kmh 30.32 in1026.8 mb 0.00 in0.0 mm 0.00 in0.0 mm 0.00 in0.0 mm
01:45 AM 37.8°F3.2°C 33.7°F0.9°C 85% 3.0 mph SSE4.8 kmh SSE 6.0 mph9.7 kmh 30.32 in1026.8 mb 0.00 in0.0 mm 0.00 in0.0 mm 0.00 in0.0 mm
01:40 AM 37.9°F3.3°C 33.8°F1.0°C 85% 3.0 mph SSE4.8 kmh SSE 5.0 mph8.0 kmh 30.33 in1027.1 mb 0.00 in0.0 mm 0.00 in0.0 mm 0.00 in0.0 mm
01:35 AM 38.0°F3.3°C 33.9°F1.1°C 85% 3.0 mph SSE4.8 kmh SSE 5.0 mph8.0 kmh 30.34 in1027.4 mb 0.00 in0.0 mm 0.00 in0.0 mm 0.00 in0.0 mm
01:30 AM 38.0°F3.3°C 33.9°F1.1°C 85% 3.0 mph SSE4.8 kmh SSE 5.0 mph8.0 kmh 30.34 in1027.4 mb 0.00 in0.0 mm 0.00 in0.0 mm 0.00 in0.0 mm
01:25 AM 38.1°F3.4°C 34.0°F1.1°C 85% 3.0 mph S4.8 kmh S 5.0 mph8.0 kmh 30.34 in1027.4 mb 0.00 in0.0 mm 0.00 in0.0 mm 0.00 in0.0 mm
01:20 AM 38.2°F3.4°C 34.1°F1.2°C 85% 3.0 mph S4.8 kmh S 5.0 mph8.0 kmh 30.34 in1027.4 mb 0.00 in0.0 mm 0.00 in0.0 mm 0.00 in0.0 mm
01:15 AM 38.3°F3.5°C 34.2°F1.2°C 85% 3.0 mph S4.8 kmh S 4.0 mph6.4 kmh 30.34 in1027.4 mb 0.00 in0.0 mm 0.00 in0.0 mm 0.00 in0.0 mm
01:10 AM 38.4°F3.6°C 34.3°F1.3°C 85% 3.0 mph S4.8 kmh S 5.0 mph8.0 kmh 30.34 in1027.4 mb 0.00 in0.0 mm 0.00 in0.0 mm 0.00 in0.0 mm
01:05 AM 38.6°F3.7°C 34.5°F1.4°C 85% 3.0 mph S4.8 kmh S 5.0 mph8.0 kmh 30.35 in1027.8 mb 0.00 in0.0 mm 0.00 in0.0 mm 0.00 in0.0 mm
01:00 AM 38.7°F3.7°C 34.6°F1.4°C 85% 3.0 mph S4.8 kmh S 5.0 mph8.0 kmh 30.35 in1027.8 mb 0.00 in0.0 mm 0.00 in0.0 mm 0.00 in0.0 mm
12:55 AM 38.9°F3.8°C 35.1°F1.7°C 86% 3.0 mph S4.8 kmh S 5.0 mph8.0 kmh 30.35 in1027.8 mb 0.00 in0.0 mm 0.00 in0.0 mm 0.00 in0.0 mm
12:50 AM 39.0°F3.9°C 35.2°F1.8°C 86% 3.0 mph S4.8 kmh S 5.0 mph8.0 kmh 30.36 in1028.1 mb 0.00 in0.0 mm 0.00 in0.0 mm 0.00 in0.0 mm
12:45 AM 39.1°F3.9°C 35.3°F1.8°C 86% 2.0 mph S3.2 kmh S 5.0 mph8.0 kmh 30.36 in1028.1 mb 0.00 in0.0 mm 0.00 in0.0 mm 0.00 in0.0 mm
12:40 AM 39.2°F4.0°C 35.4°F1.9°C 86% 3.0 mph S4.8 kmh S 5.0 mph8.0 kmh 30.36 in1028.1 mb 0.00 in0.0 mm 0.00 in0.0 mm 0.00 in0.0 mm
12:35 AM 39.3°F4.1°C 35.5°F1.9°C 86% 3.0 mph SSE4.8 kmh SSE 5.0 mph8.0 kmh 30.36 in1028.1 mb 0.00 in0.0 mm 0.00 in0.0 mm 0.00 in0.0 mm
12:30 AM 39.4°F4.1°C 35.6°F2.0°C 86% 3.0 mph SSE4.8 kmh SSE 4.0 mph6.4 kmh 30.36 in1028.1 mb 0.00 in0.0 mm 0.00 in0.0 mm 0.00 in0.0 mm
12:25 AM 39.4°F4.1°C 35.6°F2.0°C 86% 3.0 mph SSE4.8 kmh SSE 5.0 mph8.0 kmh 30.36 in1028.1 mb 0.00 in0.0 mm 0.00 in0.0 mm 0.00 in0.0 mm
12:20 AM 39.3°F4.1°C 35.5°F1.9°C 86% 2.0 mph SSE3.2 kmh SSE 5.0 mph8.0 kmh 30.36 in1028.1 mb 0.00 in0.0 mm 0.00 in0.0 mm 0.00 in0.0 mm
12:15 AM 39.3°F4.1°C 35.5°F1.9°C 86% 3.0 mph S4.8 kmh S 5.0 mph8.0 kmh 30.36 in1028.1 mb 0.00 in0.0 mm 0.00 in0.0 mm 0.00 in0.0 mm
12:10 AM 39.2°F4.0°C 35.7°F2.1°C 87% 3.0 mph SSE4.8 kmh SSE 5.0 mph8.0 kmh 30.36 in1028.1 mb 0.00 in0.0 mm 0.00 in0.0 mm 0.00 in0.0 mm
12:05 AM 39.0°F3.9°C 35.5°F1.9°C 87% 3.0 mph SSE4.8 kmh SSE 6.0 mph9.7 kmh 30.36 in1028.1 mb 0.00 in0.0 mm 0.00 in0.0 mm 0.00 in0.0 mm
12:00 AM 38.7°F3.7°C 35.2°F1.8°C 87% 2.0 mph SSE3.2 kmh SSE 6.0 mph9.7 kmh 30.36 in1028.1 mb 0.00 in0.0 mm 0.00 in0.0 mm 0.00 in0.0 mm